Time;durP1;ratioP1;P1;durP2;ratioP2;P2;SDS_P1;SDS_P2;PMS_P1;PMS_P2;Temp;Humidity;BMP_temperature;BMP_pressure;BME280_temperature;BME280_humidity;BME280_pressure;Samples;Min_cycle;Max_cycle;Signal;HPM_P1;HPM_P2
2023/06/13 00:01:51;;;;;;;4.53;2.30;;;;;;;;;;5107326;28;20023;-75
2023/06/13 00:04:21;;;;;;;9.07;2.30;;;;;;;;;;5110852;28;20020;-76
2023/06/13 00:06:48;;;;;;;4.13;2.20;;;;;;;;;;5109539;28;20047;-76
2023/06/13 00:09:15;;;;;;;6.10;2.63;;;;;;;;;;5090036;28;20035;-77
2023/06/13 00:11:41;;;;;;;4.43;2.10;;;;;;;;;;5089540;28;20048;-77
2023/06/13 00:14:10;;;;;;;4.13;2.40;;;;;;;;;;5090232;28;20101;-76
2023/06/13 00:16:38;;;;;;;3.88;2.13;;;;;;;;;;5100089;28;20537;-75
2023/06/13 00:19:04;;;;;;;4.15;2.33;;;;;;;;;;5094404;28;20080;-77
2023/06/13 00:21:32;;;;;;;3.25;2.22;;;;;;;;;;5097205;28;20016;-77
2023/06/13 00:23:58;;;;;;;4.18;2.33;;;;;;;;;;5090115;28;20031;-76
2023/06/13 00:26:24;;;;;;;5.85;2.55;;;;;;;;;;5104375;28;20443;-77
2023/06/13 00:28:51;;;;;;;8.48;2.85;;;;;;;;;;5096188;28;20781;-76
2023/06/13 00:31:17;;;;;;;4.18;2.50;;;;;;;;;;5109332;28;20453;-76
2023/06/13 00:33:43;;;;;;;4.25;2.30;;;;;;;;;;5105719;28;20019;-76
2023/06/13 00:36:14;;;;;;;6.95;2.55;;;;;;;;;;5100489;28;20020;-75
2023/06/13 00:38:40;;;;;;;5.75;2.60;;;;;;;;;;5089823;28;20040;-75
2023/06/13 00:41:06;;;;;;;5.22;2.53;;;;;;;;;;5089582;28;20389;-76
2023/06/13 00:43:33;;;;;;;6.32;2.40;;;;;;;;;;5089026;28;20369;-76
2023/06/13 00:46:00;;;;;;;4.75;2.47;;;;;;;;;;5089651;28;20024;-77
2023/06/13 00:48:27;;;;;;;4.38;2.67;;;;;;;;;;5094573;28;20019;-76
2023/06/13 00:50:54;;;;;;;4.25;2.40;;;;;;;;;;5105910;28;20050;-76
2023/06/13 00:53:21;;;;;;;4.72;2.63;;;;;;;;;;5109738;28;20026;-76
2023/06/13 00:55:48;;;;;;;3.72;2.42;;;;;;;;;;5087915;28;20760;-76
2023/06/13 00:58:14;;;;;;;4.95;2.50;;;;;;;;;;5098387;28;20093;-75
2023/06/13 01:00:43;;;;;;;7.57;2.38;;;;;;;;;;5088599;28;20418;-76
2023/06/13 01:03:14;;;;;;;3.15;2.30;;;;;;;;;;5088477;28;20390;-75
2023/06/13 01:05:40;;;;;;;3.88;2.70;;;;;;;;;;5101249;28;20114;-75
2023/06/13 01:08:09;;;;;;;6.63;2.55;;;;;;;;;;5093822;28;20469;-75
2023/06/13 01:10:36;;;;;;;3.75;2.40;;;;;;;;;;5092107;28;20040;-75
2023/06/13 01:13:17;;;;;;;3.38;2.20;;;;;;;;;;5087562;28;20055;-75
2023/06/13 01:15:48;;;;;;;4.38;2.47;;;;;;;;;;5096470;28;20041;-76
2023/06/13 01:18:15;;;;;;;5.60;2.67;;;;;;;;;;5075863;28;20032;-74
2023/06/13 01:20:44;;;;;;;4.22;2.42;;;;;;;;;;5088293;28;20501;-75
2023/06/13 01:23:25;;;;;;;5.28;2.67;;;;;;;;;;5089211;28;20070;-76
2023/06/13 01:25:59;;;;;;;4.82;2.63;;;;;;;;;;5069724;28;20043;-75
2023/06/13 01:28:26;;;;;;;6.05;2.35;;;;;;;;;;5087982;28;20031;-75
2023/06/13 01:30:53;;;;;;;8.60;2.33;;;;;;;;;;5088338;28;20044;-76
2023/06/13 01:33:20;;;;;;;5.10;2.35;;;;;;;;;;5092074;28;20023;-76
2023/06/13 01:35:46;;;;;;;6.38;2.50;;;;;;;;;;5088125;28;20162;-75
2023/06/13 01:38:12;;;;;;;4.00;2.47;;;;;;;;;;5087955;28;20032;-75
2023/06/13 01:40:39;;;;;;;3.60;2.50;;;;;;;;;;5091210;28;20031;-75
2023/06/13 01:43:05;;;;;;;4.97;2.33;;;;;;;;;;5088698;28;20036;-76
2023/06/13 01:45:31;;;;;;;4.70;2.40;;;;;;;;;;5069571;28;20034;-76
2023/06/13 01:48:23;;;;;;;5.35;2.85;;;;;;;;;;5107638;28;20111;-76
2023/06/13 01:51:01;;;;;;;5.85;2.40;;;;;;;;;;5099024;28;20039;-76
2023/06/13 01:53:37;;;;;;;5.72;2.50;;;;;;;;;;5086863;28;20080;-76
2023/06/13 01:56:07;;;;;;;4.75;2.47;;;;;;;;;;5101760;28;20092;-75
2023/06/13 01:58:36;;;;;;;4.38;2.60;;;;;;;;;;5111366;28;20038;-76
2023/06/13 02:01:13;;;;;;;4.65;2.47;;;;;;;;;;5109546;28;20059;-75
2023/06/13 02:03:40;;;;;;;6.13;2.60;;;333.00;2329.60;;;;;;5094836;28;20024;-74
2023/06/13 02:06:05;;;;;;;5.70;2.67;;;332.80;2329.60;;;;;;5107464;28;20015;-74
2023/06/13 02:08:32;;;;;;;5.00;2.50;;;;;;;;;;5092820;28;20031;-74
2023/06/13 02:10:57;;;;;;;3.42;2.40;;;333.00;2329.60;;;;;;5112664;28;20554;-74
2023/06/13 02:13:23;;;;;;;4.78;2.78;;;332.80;2329.60;;;;;;5103317;28;20047;-74
2023/06/13 02:15:50;;;;;;;4.75;2.20;;;;;;;;;;5094420;28;20453;-76
2023/06/13 02:18:16;;;;;;;4.63;2.40;;;;;;;;;;5110954;28;20165;-75
2023/06/13 02:20:43;;;;;;;4.32;2.38;;;;;;;;;;5111262;28;20020;-76
2023/06/13 02:23:09;;;;;;;5.68;2.30;;;;;;;;;;5111039;28;20036;-74
2023/06/13 02:25:35;;;;;;;5.72;2.58;;;;;;;;;;5099646;28;20020;-77
2023/06/13 02:28:01;;;;;;;3.60;2.60;;;;;;;;;;5091437;28;20111;-74
2023/06/13 02:30:27;;;;;;;5.15;2.78;;;332.80;2329.60;;;;;;5090752;28;20054;-76
2023/06/13 02:32:53;;;;;;;6.35;2.47;;;307.90;2304.00;;;;;;5102210;28;20063;-76
2023/06/13 02:35:22;;;;;;;5.75;2.65;;;;;;;;;;5104761;28;20401;-77
2023/06/13 02:37:50;;;;;;;5.18;2.40;;;;;;;;;;5110758;28;20426;-76
2023/06/13 02:40:16;;;;;;;4.40;2.65;;;;;;;;;;5110606;28;20465;-74
2023/06/13 02:42:45;;;;;;;3.65;2.45;;;;;;;;;;5109519;28;20055;-77
2023/06/13 02:45:12;;;;;;;4.20;2.78;;;;;;;;;;5110111;28;20031;-77
2023/06/13 02:47:38;;;;;;;6.45;3.00;;;;;;;;;;5095849;28;20020;-77
2023/06/13 02:50:04;;;;;;;5.18;3.13;;;;;;;;;;5093726;28;20069;-75
2023/06/13 02:52:31;;;;;;;5.45;3.42;;;;;;;;;;5090911;28;20020;-77
2023/06/13 02:54:57;;;;;;;4.93;3.03;;;;;;;;;;5096610;28;20040;-76
2023/06/13 02:57:23;;;;;;;4.60;2.78;;;;;;;;;;5108863;28;20038;-76
2023/06/13 02:59:49;;;;;;;4.68;2.83;;;;;;;;;;5109707;28;20355;-78
2023/06/13 03:02:16;;;;;;;5.40;2.78;;;;;;;;;;5108513;28;20020;-77
2023/06/13 03:04:42;;;;;;;5.00;2.90;;;;;;;;;;5104605;28;20036;-77
2023/06/13 03:07:10;;;;;;;5.68;2.92;;;;;;;;;;5097004;28;20489;-76
2023/06/13 03:09:36;;;;;;;5.00;3.05;;;;;;;;;;5098833;28;20040;-76
2023/06/13 03:12:02;;;;;;;7.30;2.70;;;;;;;;;;5090584;28;20051;-77
2023/06/13 03:14:29;;;;;;;3.95;2.67;;;;;;;;;;5090927;28;20035;-77
2023/06/13 03:16:59;;;;;;;13.98;3.40;;;;;;;;;;5091557;28;20035;-74
2023/06/13 03:19:25;;;;;;;6.18;2.80;;;;;;;;;;5098511;28;20085;-75
2023/06/13 03:21:51;;;;;;;5.10;2.88;;;;;;;;;;5093166;28;20085;-77
2023/06/13 03:24:17;;;;;;;3.90;2.72;;;;;;;;;;5091749;28;20104;-77
2023/06/13 03:26:44;;;;;;;5.68;2.78;;;;;;;;;;5091415;28;20024;-76
2023/06/13 03:29:10;;;;;;;5.90;2.60;;;;;;;;;;5108928;28;20119;-76
2023/06/13 03:31:36;;;;;;;6.28;3.10;;;;;;;;;;5109752;28;20065;-76
2023/06/13 03:34:02;;;;;;;5.60;2.75;;;;;;;;;;5110263;28;20022;-76
2023/06/13 03:36:28;;;;;;;4.45;2.70;;;;;;;;;;5101428;28;20032;-76
2023/06/13 03:38:54;;;;;;;4.28;2.65;;;;;;;;;;5090272;28;20032;-76
2023/06/13 03:41:20;;;;;;;4.07;2.60;;;;;;;;;;5090977;28;20024;-76
2023/06/13 03:43:46;;;;;;;5.47;2.60;;;;;;;;;;5090858;28;20153;-76
2023/06/13 03:46:12;;;;;;;3.92;2.80;;;;;;;;;;5092909;28;20032;-76
2023/06/13 03:48:38;;;;;;;4.65;2.92;;;;;;;;;;5075468;28;20036;-76
2023/06/13 03:51:04;;;;;;;6.05;2.60;;;;;;;;;;5090224;28;20071;-76
2023/06/13 03:53:30;;;;;;;6.45;3.10;;;;;;;;;;5097020;28;20023;-76
2023/06/13 03:55:56;;;;;;;5.20;2.63;;;;;;;;;;5110747;28;20090;-77
2023/06/13 03:58:24;;;;;;;5.85;2.92;;;;;;;;;;5101183;28;20045;-76
2023/06/13 04:00:51;;;;;;;7.05;2.83;;;;;;;;;;5090495;28;20064;-77
2023/06/13 04:03:19;;;;;;;6.75;2.80;;;;;;;;;;5090149;28;20492;-76
2023/06/13 04:05:45;;;;;;;4.93;2.60;;;;;;;;;;5071867;28;20162;-76
2023/06/13 04:08:12;;;;;;;4.75;2.70;;;;;;;;;;5090536;28;20039;-76
2023/06/13 04:10:38;;;;;;;4.30;2.75;;;;;;;;;;5080461;28;20476;-76
2023/06/13 04:13:04;;;;;;;3.83;2.80;;;;;;;;;;5095202;28;20039;-76
2023/06/13 04:15:30;;;;;;;5.10;2.88;;;;;;;;;;5109107;28;20030;-76
2023/06/13 04:17:56;;;;;;;5.13;2.72;;;;;;;;;;5110208;28;20042;-77
2023/06/13 04:20:23;;;;;;;3.92;2.67;;;;;;;;;;5110156;28;20467;-76
2023/06/13 04:22:51;;;;;;;7.10;3.05;;;;;;;;;;5078450;28;20032;-76
2023/06/13 04:25:17;;;;;;;5.00;3.00;;;;;;;;;;5080167;28;20042;-76
2023/06/13 04:27:44;;;;;;;4.90;3.00;;;;;;;;;;5093667;28;20023;-76
2023/06/13 04:30:11;;;;;;;4.28;2.70;;;;;;;;;;5108187;28;20495;-76
2023/06/13 04:32:39;;;;;;;6.35;3.03;;;;;;;;;;5111273;28;20431;-76
2023/06/13 04:35:05;;;;;;;5.20;2.90;;;;;;;;;;5092263;28;20030;-77
2023/06/13 04:37:32;;;;;;;4.10;2.80;;;;;;;;;;5089503;28;20443;-76
2023/06/13 04:39:58;;;;;;;4.75;2.97;;;;;;;;;;5090618;28;20024;-77
2023/06/13 04:42:27;;;;;;;5.07;2.88;;;;;;;;;;5089571;28;20028;-77
2023/06/13 04:44:53;;;;;;;6.60;3.38;;;;;;;;;;5105785;28;20023;-76
2023/06/13 04:47:19;;;;;;;5.28;2.97;;;;;;;;;;5103704;28;20032;-77
2023/06/13 04:49:46;;;;;;;5.88;2.90;;;;;;;;;;5107735;28;20042;-76
2023/06/13 04:52:14;;;;;;;4.47;3.00;;;;;;;;;;5090291;28;20423;-77
2023/06/13 04:54:40;;;;;;;3.97;2.70;;;;;;;;;;5090452;28;20054;-76
2023/06/13 04:57:06;;;;;;;6.75;2.70;;;;;;;;;;5089458;28;20028;-77
2023/06/13 04:59:32;;;;;;;6.68;3.03;;;;;;;;;;5089363;28;20040;-77
2023/06/13 05:01:58;;;;;;;4.78;2.78;;;;;;;;;;5092926;28;20056;-77
2023/06/13 05:04:25;;;;;;;3.80;2.75;;;;;;;;;;5098273;28;20024;-76
2023/06/13 05:06:51;;;;;;;6.13;2.95;;;;;;;;;;5089339;28;20024;-76
2023/06/13 05:09:17;;;;;;;4.53;2.70;;;;;;;;;;5091133;28;20078;-77
2023/06/13 05:11:43;;;;;;;6.15;3.00;;;;;;;;;;5090582;28;20044;-76
2023/06/13 05:14:09;;;;;;;4.43;2.88;;;;;;;;;;5103921;28;20115;-76
2023/06/13 05:16:35;;;;;;;4.22;2.60;;;;;;;;;;5091162;28;20020;-77
2023/06/13 05:19:01;;;;;;;5.80;2.75;;;;;;;;;;5088972;28;20126;-77
2023/06/13 05:21:30;;;;;;;5.93;3.03;;;;;;;;;;5099469;28;20058;-77
2023/06/13 05:23:56;;;;;;;4.18;3.00;;;;;;;;;;5077931;28;20105;-77
2023/06/13 05:26:22;;;;;;;12.80;3.17;;;;;;;;;;5109532;28;20040;-77
2023/06/13 05:28:48;;;;;;;5.70;3.15;;;;;;;;;;5091465;28;20108;-78
2023/06/13 05:31:14;;;;;;;4.63;2.90;;;;;;;;;;5093760;28;20032;-77
2023/06/13 05:33:41;;;;;;;4.30;2.90;;;;;;;;;;5113511;28;20484;-77
2023/06/13 05:36:07;;;;;;;5.55;2.58;;;;;;;;;;5110601;28;20045;-77
2023/06/13 05:38:33;;;;;;;6.65;2.97;;;;;;;;;;5104712;28;20036;-77
2023/06/13 05:40:59;;;;;;;4.00;2.80;;;;;;;;;;5101771;28;20786;-77
2023/06/13 05:43:26;;;;;;;4.50;3.10;;;;;;;;;;5084685;28;20036;-77
2023/06/13 05:45:52;;;;;;;5.20;2.90;;;;;;;;;;5110667;28;20027;-77
2023/06/13 05:48:18;;;;;;;5.82;3.03;;;;;;;;;;5113348;28;20385;-77
2023/06/13 05:50:44;;;;;;;4.10;3.20;;;;;;;;;;5113710;28;20106;-78
2023/06/13 05:53:10;;;;;;;7.22;3.40;;;;;;;;;;5106286;28;20022;-78
2023/06/13 05:55:36;;;;;;;5.50;3.10;;;;;;;;;;5100881;28;20077;-78
2023/06/13 05:58:03;;;;;;;4.60;2.90;;;;;;;;;;5094521;28;20042;-77
2023/06/13 06:00:29;;;;;;;4.70;3.20;;;;;;;;;;5111795;28;20031;-78
2023/06/13 06:02:55;;;;;;;3.85;3.00;;;;;;;;;;5110205;28;20027;-78
2023/06/13 06:05:21;;;;;;;4.95;3.00;;;;;;;;;;5092805;28;20053;-78
2023/06/13 06:07:47;;;;;;;4.68;3.00;;;;;;;;;;5097367;28;20064;-78
2023/06/13 06:10:14;;;;;;;3.92;2.92;;;;;;;;;;5085739;28;20070;-79
2023/06/13 06:12:40;;;;;;;4.88;3.10;;;;;;;;;;5101760;28;20044;-79
2023/06/13 06:15:06;;;;;;;5.60;3.08;;;;;;;;;;5094735;28;20380;-77
2023/06/13 06:17:32;;;;;;;9.15;3.40;;;;;;;;;;5102272;28;20096;-79
2023/06/13 06:19:58;;;;;;;6.38;3.00;;;;;;;;;;5105121;28;20473;-79
2023/06/13 06:22:24;;;;;;;4.15;3.30;;;;;;;;;;5111223;28;20065;-79
2023/06/13 06:24:50;;;;;;;7.20;3.03;;;;;;;;;;5112895;28;20080;-78
2023/06/13 06:27:17;;;;;;;4.43;3.25;;;;;;;;;;5108175;28;20465;-78
2023/06/13 06:29:43;;;;;;;4.63;2.92;;;;;;;;;;5103483;28;20070;-78
2023/06/13 06:32:10;;;;;;;6.20;2.80;;;;;;;;;;5097289;28;20024;-78
2023/06/13 06:34:36;;;;;;;12.85;11.40;;;;;;;;;;5090928;28;20457;-78
2023/06/13 06:37:05;;;;;;;4.80;3.50;;;;;;;;;;5101522;28;20051;-79
2023/06/13 06:39:32;;;;;;;3.75;3.13;;;;;;;;;;5095231;28;20035;-80
2023/06/13 06:41:58;;;;;;;4.07;3.13;;;;;;;;;;5101287;28;20678;-79
2023/06/13 06:44:24;;;;;;;7.00;3.60;;;;;;;;;;5095509;28;20032;-80
2023/06/13 06:46:50;;;;;;;5.18;3.10;;;;;;;;;;5091916;28;20085;-80
2023/06/13 06:49:19;;;;;;;4.00;3.10;;;;;;;;;;5078140;28;20393;-77
2023/06/13 06:51:45;;;;;;;6.93;3.45;;;;;;;;;;5101350;28;20019;-76
2023/06/13 06:54:11;;;;;;;4.22;3.30;;;;;;;;;;5095776;28;20382;-77
2023/06/13 06:56:37;;;;;;;4.35;3.67;;;;;;;;;;5094479;28;20036;-77
2023/06/13 06:59:04;;;;;;;4.00;3.60;;;;;;;;;;5091144;28;20040;-76
2023/06/13 07:01:30;;;;;;;5.43;3.65;;;;;;;;;;5101326;28;20074;-77
2023/06/13 07:03:56;;;;;;;4.18;3.38;;;;;;;;;;5107040;28;20821;-78
2023/06/13 07:06:22;;;;;;;4.85;3.45;;;461.10;2380.80;;;;;;5102464;28;20483;-79
2023/06/13 07:08:48;;;;;;;4.28;3.40;;;461.00;2380.80;;;;;;5108491;28;20036;-78
2023/06/13 07:11:13;;;;;;;6.25;3.70;;;461.10;2380.80;;;;;;5102466;28;20130;-80
2023/06/13 07:13:39;;;;;;;4.35;3.72;;;;;;;;;;5098932;28;20032;-80
2023/06/13 07:16:05;;;;;;;4.55;4.07;;;;;;;;;;5093389;28;20714;-78
2023/06/13 07:18:31;;;;;;;5.60;4.07;;;;;;;;;;5075357;28;20834;-79
2023/06/13 07:20:57;;;;;;;7.07;6.45;;;;;;;;;;5101166;28;20547;-78
2023/06/13 07:23:23;;;;;;;5.15;4.65;;;;;;;;;;5107875;28;20065;-79
2023/06/13 07:25:49;;;;;;;7.38;5.07;;;486.40;2380.80;;;;;;5091700;28;20052;-78
2023/06/13 07:28:15;;;;;;;5.50;4.97;;;;;;;;;;5110550;28;20096;-79
2023/06/13 07:30:41;;;;;;;5.35;4.88;;;;;;;;;;5091068;28;20031;-78
2023/06/13 07:33:07;;;;;;;5.85;5.35;;;;;;;;;;5109515;28;20024;-79
2023/06/13 07:35:33;;;;;;;6.88;6.18;;;;;;;;;;5093113;28;20065;-79
2023/06/13 07:37:59;;;;;;;5.70;5.20;;;;;;;;;;5102197;28;20043;-79
2023/06/13 07:40:25;;;;;;;5.93;5.10;;;;;;;;;;5092476;28;20028;-78
2023/06/13 07:42:52;;;;;;;5.43;4.93;;;;;;;;;;5090720;28;20043;-78
2023/06/13 07:45:19;;;;;;;5.97;5.47;;;;;;;;;;5090318;28;20024;-78
2023/06/13 07:47:45;;;;;;;5.68;5.15;;;;;;;;;;5090932;28;20028;-78
2023/06/13 07:50:11;;;;;;;5.63;5.10;;;;;;;;;;5090988;28;20028;-78
2023/06/13 07:52:37;;;;;;;6.55;4.20;;;;;;;;;;5090842;28;20058;-78
2023/06/13 07:55:04;;;;;;;9.23;5.85;;;512.40;2380.80;;;;;;5091886;28;20135;-77
2023/06/13 07:57:30;;;;;;;6.15;5.55;;;;;;;;;;5110697;28;20081;-77
2023/06/13 07:59:56;;;;;;;14.05;12.98;;;;;;;;;;5112853;28;20030;-78
2023/06/13 08:02:26;;;;;;;7.35;6.70;;;;;;;;;;5112722;28;20114;-79
2023/06/13 08:04:52;;;;;;;6.93;5.15;;;;;;;;;;5112093;28;20080;-78
2023/06/13 08:07:18;;;;;;;6.35;5.75;;;;;;;;;;5094109;28;20038;-78
2023/06/13 08:09:44;;;;;;;7.70;6.38;;;;;;;;;;5090365;28;20060;-78
2023/06/13 08:12:10;;;;;;;7.18;6.47;;;;;;;;;;5096903;28;20484;-77
2023/06/13 08:14:37;;;;;;;11.15;10.02;;;;;;;;;;5093848;28;20015;-78
2023/06/13 08:17:03;;;;;;;8.88;8.15;;;;;;;;;;5110066;28;20032;-78
2023/06/13 08:19:29;;;;;;;10.75;9.82;;;;;;;;;;5094546;28;20553;-78
2023/06/13 08:21:55;;;;;;;13.93;12.88;;;;;;;;;;5111401;28;20156;-78
2023/06/13 08:24:21;;;;;;;16.27;14.98;;;;;;;;;;5099433;28;20029;-77
2023/06/13 08:26:49;;;;;;;11.68;10.82;;;;;;;;;;5091407;28;20021;-78
2023/06/13 08:29:17;;;;;;;11.38;10.52;;;;;;;;;;5099400;28;20065;-77
2023/06/13 08:31:44;;;;;;;12.18;11.18;;;;;;;;;;5111272;28;20107;-77
2023/06/13 08:34:10;;;;;;;13.13;12.13;;;;;;;;;;5091421;28;20085;-78
2023/06/13 08:36:36;;;;;;;16.48;15.18;;;;;;;;;;5111638;28;20085;-77
2023/06/13 08:39:06;;;;;;;17.40;16.08;;;;;;;;;;5111814;28;20461;-78
2023/06/13 08:41:33;;;;;;;17.00;15.82;;;;;;;;;;5112294;28;20476;-78
2023/06/13 08:43:59;;;;;;;16.65;15.38;;;;;;;;;;5111049;28;20024;-78
2023/06/13 08:46:29;;;;;;;32.55;30.45;;;;;;;;;;5091847;28;20026;-77
2023/06/13 08:48:55;;;;;;;17.55;16.40;;;;;;;;;;5091596;28;20040;-77
2023/06/13 08:51:22;;;;;;;43.90;41.10;;;;;;;;;;5070764;28;20478;-77
2023/06/13 08:53:49;;;;;;;22.80;21.13;;;;;;;;;;5102062;28;20478;-77
2023/06/13 08:56:16;;;;;;;36.40;34.05;;;;;;;;;;5089755;28;20039;-76
2023/06/13 08:58:43;;;;;;;32.72;30.63;;;;;;;;;;5090838;28;20123;-78
2023/06/13 09:01:10;;;;;;;46.75;43.80;;;;;;;;;;5096547;28;20126;-77
2023/06/13 09:03:38;;;;;;;71.55;66.90;;;;;;;;;;5094944;28;20481;-77
2023/06/13 09:06:04;;;;;;;39.78;37.13;;;;;;;;;;5091002;28;20032;-77
2023/06/13 09:08:31;;;;;;;36.45;34.13;;;;;;;;;;5089084;28;20051;-77
2023/06/13 09:10:57;;;;;;;39.67;37.22;;;;;;;;;;5090742;28;20059;-77
2023/06/13 09:13:24;;;;;;;48.85;45.65;;;;;;;;;;5094826;28;20036;-78
2023/06/13 09:15:50;;;;;;;80.57;75.05;;;;;;;;;;5089047;28;20039;-76
2023/06/13 09:18:16;;;;;;;81.82;76.40;;;;;;;;;;5087923;28;20465;-77
2023/06/13 09:20:42;;;;;;;85.82;80.18;;;;;;;;;;5073740;28;20039;-77
2023/06/13 09:23:10;;;;;;;91.18;85.15;;;;;;;;;;5087978;28;20028;-77
2023/06/13 09:25:37;;;;;;;123.60;115.32;;;;;;;;;;5088470;28;20541;-76
2023/06/13 09:28:22;;;;;;;126.47;117.90;;;;;;;;;;5088792;28;20051;-77
2023/06/13 09:30:48;;;;;;;141.23;132.10;;;;;;;;;;5088131;28;20127;-77
2023/06/13 09:33:15;;;;;;;142.15;133.02;;;;;;;;;;5070102;28;20017;-77
2023/06/13 09:35:41;;;;;;;186.10;172.93;;;;;;;;;;5098531;28;20104;-77
2023/06/13 09:38:11;;;;;;;148.20;138.52;;;;;;;;;;5100440;28;20036;-76
2023/06/13 09:40:37;;;;;;;102.80;95.63;;;;;;;;;;5103061;28;20035;-77
2023/06/13 09:43:03;;;;;;;148.80;138.75;;;;;;;;;;5108628;28;20027;-77
2023/06/13 09:45:30;;;;;;;177.35;164.73;;;;;;;;;;5108240;28;20484;-77
2023/06/13 09:47:56;;;;;;;165.38;154.50;;;;;;;;;;5107875;28;20433;-74
2023/06/13 09:50:22;;;;;;;159.82;149.25;;;;;;;;;;5106426;28;20063;-74
2023/06/13 09:52:48;;;;;;;157.95;147.43;;;;;;;;;;5090029;28;20022;-74
2023/06/13 09:55:14;;;;;;;139.70;130.32;;;;;;;;;;5095304;28;20035;-75
2023/06/13 09:57:40;;;;;;;154.13;143.80;;;;;;;;;;5103362;28;20031;-74
2023/06/13 10:00:09;;;;;;;160.55;150.15;;;;;;;;;;5100582;28;20060;-77
2023/06/13 10:02:35;;;;;;;175.23;163.77;;;640.90;1843.20;;;;;;5087972;28;20053;-77
2023/06/13 10:05:01;;;;;;;164.85;153.93;;;;;;;;;;5076071;28;20043;-76
2023/06/13 10:07:27;;;;;;;184.27;171.40;;;666.00;1766.40;;;;;;5107371;28;20076;-75
2023/06/13 10:09:53;;;;;;;235.73;218.95;;;665.80;1715.20;;;;;;5088073;28;20150;-75
2023/06/13 10:12:21;;;;;;;189.15;176.20;;;640.80;1689.60;;;;;;5104674;28;20035;-75
2023/06/13 10:15:00;;;;;;;191.20;178.07;;;640.80;1689.60;;;;;;5107046;28;20164;-74
2023/06/13 10:17:32;;;;;;;207.45;192.52;;;640.80;1638.40;;;;;;5109095;28;20055;-75
2023/06/13 10:20:04;;;;;;;189.10;174.32;;;665.60;1612.80;;;;;;5092583;28;20036;-77
2023/06/13 10:22:31;;;;;;;236.27;219.85;;;;;;;;;;5112500;28;20040;-78
2023/06/13 10:24:57;;;;;;;169.82;156.50;;;;;;;;;;5113169;28;20027;-77
2023/06/13 10:27:24;;;;;;;197.30;182.55;;;;;;;;;;5106867;28;20035;-77
2023/06/13 10:30:02;;;;;;;217.13;201.27;;;;;;;;;;5096071;28;20031;-75
2023/06/13 10:32:47;;;;;;;237.45;221.43;;;;;;;;;;5073244;28;20039;-76
2023/06/13 10:35:34;;;;;;;269.73;249.07;;;;;;;;;;5092020;28;20443;-76
2023/06/13 10:38:18;;;;;;;181.23;167.82;;;691.30;1587.20;;;;;;5009850;28;20046;-76
2023/06/13 10:40:44;;;;;;;197.90;183.30;;;691.20;1561.60;;;;;;5009895;28;20046;-76
2023/06/13 10:43:39;;;;;;;211.07;193.68;;;666.50;1587.20;;;;;;5009309;28;20057;-77
2023/06/13 10:46:07;;;;;;;211.35;193.45;;;691.20;1484.80;;;;;;5023754;28;20430;-77
2023/06/13 10:48:49;;;;;;;207.85;191.20;;;666.30;1536.00;;;;;;5028225;28;20083;-77
2023/06/13 10:51:23;;;;;;;195.15;181.07;;;665.90;1561.60;;;;;;5028242;28;20487;-77
2023/06/13 10:54:11;;;;;;;214.55;198.93;;;691.20;1612.80;;;;;;5013249;28;20030;-76
2023/06/13 10:56:39;;;;;;;199.55;184.05;;;666.30;1561.60;;;;;;4993046;28;20872;-77
2023/06/13 10:59:10;;;;;;;240.80;223.30;;;666.10;1536.00;;;;;;5010085;28;20034;-76
2023/06/13 11:01:37;;;;;;;215.82;199.25;;;666.10;1587.20;;;;;;5010045;28;20911;-76
2023/06/13 11:04:30;;;;;;;274.38;252.82;;;665.80;1587.20;;;;;;5024467;28;20033;-76
2023/06/13 11:07:14;;;;;;;220.88;203.80;;;;;;;;;;5026692;28;20033;-76
2023/06/13 11:09:41;;;;;;;252.98;236.13;;;;;;;;;;5027599;28;20048;-76
2023/06/13 11:12:07;;;;;;;261.75;243.00;;;;;;;;;;5012099;28;20038;-76
2023/06/13 11:14:37;;;;;;;220.30;203.77;;;;;;;;;;5033540;28;20041;-76
2023/06/13 11:17:03;;;;;;;251.77;232.82;;;;;;;;;;5049024;28;20060;-76
2023/06/13 11:19:33;;;;;;;262.50;241.98;;;;;;;;;;5048522;28;20116;-78
2023/06/13 11:21:59;;;;;;;245.73;226.95;;;;;;;;;;5066786;28;20868;-77
2023/06/13 11:24:28;;;;;;;266.45;246.15;;;640.50;1587.20;;;;;;5091713;28;20028;-76
2023/06/13 11:26:56;;;;;;;231.48;213.85;;;640.30;1612.80;;;;;;5092775;28;20043;-77
2023/06/13 11:29:23;;;;;;;266.95;246.35;;;;;;;;;;5090517;28;20493;-76
2023/06/13 11:31:52;;;;;;;211.70;194.73;;;;;;;;;;5099377;28;20024;-78
2023/06/13 11:34:20;;;;;;;204.93;187.50;;;;;;;;;;5102464;28;20369;-77
2023/06/13 11:36:47;;;;;;;259.15;239.75;;;;;;;;;;5073415;28;20019;-77
2023/06/13 11:39:26;;;;;;;273.55;252.95;;;666.50;1536.00;;;;;;5106787;28;20044;-77
2023/06/13 11:41:52;;;;;;;229.45;212.10;;;;;;;;;;5104520;28;20567;-77
2023/06/13 11:44:19;;;;;;;252.55;232.88;;;691.60;1484.80;;;;;;5110949;28;20057;-77
2023/06/13 11:46:46;;;;;;;246.57;227.45;;;691.60;1433.60;;;;;;5094011;28;20303;-77
2023/06/13 11:49:15;;;;;;;264.88;244.15;;;692.00;1484.80;;;;;;5083992;28;20112;-77
2023/06/13 11:51:42;;;;;;;252.10;231.85;;;;;;;;;;5104069;28;20081;-77
2023/06/13 11:54:08;;;;;;;245.70;226.32;;;;;;;;;;5093645;28;20066;-77
2023/06/13 11:56:36;;;;;;;200.90;185.02;;;;;;;;;;5099760;28;20057;-77
2023/06/13 11:59:18;;;;;;;233.60;214.55;;;692.00;1408.00;;;;;;5098203;28;20099;-78
2023/06/13 12:01:48;;;;;;;228.73;210.77;;;691.80;1382.40;;;;;;5089589;28;20039;-77
2023/06/13 12:04:15;;;;;;;225.70;207.85;;;692.10;1382.40;;;;;;5070682;28;20147;-75
2023/06/13 12:06:41;;;;;;;251.10;231.55;;;692.10;1408.00;;;;;;5089077;28;20020;-75
2023/06/13 12:09:07;;;;;;;201.55;184.73;;;691.70;1433.60;;;;;;5093498;28;20036;-78
2023/06/13 12:11:33;;;;;;;225.98;207.68;;;691.30;1484.80;;;;;;5104619;28;20070;-76
2023/06/13 12:14:02;;;;;;;197.13;180.57;;;;;;;;;;5097458;28;20078;-75
2023/06/13 12:16:36;;;;;;;209.15;192.73;;;666.30;1484.80;;;;;;5086155;28;20028;-76
2023/06/13 12:19:06;;;;;;;222.07;204.15;;;666.20;1638.40;;;;;;5100017;28;20055;-77
2023/06/13 12:21:34;;;;;;;207.43;189.93;;;666.40;1484.80;;;;;;5109073;28;20038;-75
2023/06/13 12:24:03;;;;;;;227.00;208.70;;;691.20;1484.80;;;;;;5080709;28;20396;-75
2023/06/13 12:26:33;;;;;;;270.88;248.23;;;691.40;1484.80;;;;;;5097244;28;20043;-75
2023/06/13 12:29:01;;;;;;;239.80;220.10;;;691.80;1484.80;;;;;;5090679;28;20078;-75
2023/06/13 12:31:30;;;;;;;217.63;200.77;;;692.10;1433.60;;;;;;5098856;28;20024;-77
2023/06/13 12:34:06;;;;;;;240.25;220.70;;;;;;;;;;5096670;28;20427;-76
2023/06/13 12:36:40;;;;;;;190.38;174.05;;;;;;;;;;5090745;28;20045;-78
2023/06/13 12:39:07;;;;;;;215.18;197.15;;;;;;;;;;5092372;28;20042;-76
2023/06/13 12:41:33;;;;;;;246.50;227.27;;;;;;;;;;5092578;28;20386;-76
2023/06/13 12:44:00;;;;;;;184.90;169.88;;;;;;;;;;5100377;28;20472;-77
2023/06/13 12:46:26;;;;;;;234.45;216.18;;;;;;;;;;5095142;28;20035;-77
2023/06/13 12:48:52;;;;;;;211.73;193.02;;;;;;;;;;5098729;28;20492;-75
2023/06/13 12:51:28;;;;;;;208.90;190.45;;;742.40;1408.00;;;;;;5073531;28;20032;-76
2023/06/13 12:54:16;;;;;;;253.77;234.05;;;717.60;1382.40;;;;;;5089723;28;20031;-77
2023/06/13 12:57:00;;;;;;;231.88;213.55;;;742.40;1382.40;;;;;;5076598;28;20028;-75
2023/06/13 12:59:45;;;;;;;138.57;127.43;;;742.60;1382.40;;;;;;5110167;28;20031;-76
2023/06/13 13:02:27;;;;;;;228.27;210.55;;;717.20;1382.40;;;;;;5109303;28;20089;-76
2023/06/13 13:05:03;;;;;;;226.55;208.50;;;717.60;1382.40;;;;;;5095767;28;20031;-76
2023/06/13 13:07:30;;;;;;;155.15;141.82;;;717.70;1331.20;;;;;;5072422;28;20028;-76
2023/06/13 13:09:57;;;;;;;186.32;172.50;;;717.40;1331.20;;;;;;5088113;28;20024;-76
2023/06/13 13:12:23;;;;;;;184.50;170.32;;;717.40;1382.40;;;;;;5070290;28;20046;-77
2023/06/13 13:14:50;;;;;;;197.13;182.35;;;717.50;1356.80;;;;;;5072091;28;20056;-77
2023/06/13 13:17:17;;;;;;;153.65;141.98;;;742.40;1382.40;;;;;;5100829;28;20047;-78
2023/06/13 13:19:43;;;;;;;149.40;137.38;;;742.40;1331.20;;;;;;5087026;28;20097;-77
2023/06/13 13:22:09;;;;;;;164.80;152.27;;;717.10;1356.80;;;;;;5084891;28;20040;-75
2023/06/13 13:24:36;;;;;;;175.23;161.95;;;717.10;1356.80;;;;;;5092385;28;20024;-75
2023/06/13 13:27:03;;;;;;;161.05;148.88;;;716.80;1331.20;;;;;;5093515;28;20401;-77
2023/06/13 13:29:29;;;;;;;161.15;148.73;;;692.10;1331.20;;;;;;5095527;28;20469;-76
2023/06/13 13:31:55;;;;;;;155.30;143.43;;;;;;;;;;5090289;28;20119;-76
2023/06/13 13:34:22;;;;;;;181.27;166.77;;;666.50;1408.00;;;;;;5075371;28;20350;-76
2023/06/13 13:36:47;;;;;;;184.50;170.43;;;666.40;1433.60;;;;;;5081902;28;20031;-76
2023/06/13 13:39:14;;;;;;;178.93;165.80;;;691.20;1433.60;;;;;;5098798;28;20040;-76
2023/06/13 13:41:40;;;;;;;156.77;145.30;;;691.30;1408.00;;;;;;5099248;28;20036;-75
2023/06/13 13:44:06;;;;;;;125.63;116.28;;;691.80;1305.60;;;;;;5087657;28;20114;-76
2023/06/13 13:46:32;;;;;;;119.55;111.30;;;691.50;1356.80;;;;;;5101099;28;20135;-74
2023/06/13 13:48:58;;;;;;;152.77;141.68;;;666.50;1331.20;;;;;;5097726;28;20456;-75
2023/06/13 13:51:26;;;;;;;166.00;154.07;;;691.80;1382.40;;;;;;5093469;28;20043;-78
2023/06/13 13:53:53;;;;;;;185.02;171.38;;;716.80;1356.80;;;;;;5111571;28;20036;-74